sensor_id;sensor_type;location;lat;lon;timestamp;P1;P2;P0
77239;PMS7003;66258;53.170;-2.240;2022-12-29T00:00:22;2087.25;2072.50;2051.25
77239;PMS7003;66258;53.170;-2.240;2022-12-29T00:02:49;1597.80;1589.60;1570.40
77239;PMS7003;66258;53.170;-2.240;2022-12-29T00:05:16;608.40;607.20;585.20
77239;PMS7003;66258;53.170;-2.240;2022-12-29T00:07:43;473.40;471.20;425.60
77239;PMS7003;66258;53.170;-2.240;2022-12-29T00:10:10;675.80;665.20;634.40
77239;PMS7003;66258;53.170;-2.240;2022-12-29T00:12:38;1850.50;1804.00;1778.75
77239;PMS7003;66258;53.170;-2.240;2022-12-29T00:15:06;895.40;895.40;873.40
77239;PMS7003;66258;53.170;-2.240;2022-12-29T00:17:36;228.60;211.00;183.00
77239;PMS7003;66258;53.170;-2.240;2022-12-29T00:20:04;885.80;881.60;865.20
77239;PMS7003;66258;53.170;-2.240;2022-12-29T00:22:32;2831.00;2819.00;2810.40
77239;PMS7003;66258;53.170;-2.240;2022-12-29T00:25:00;2220.80;2213.40;2187.80
77239;PMS7003;66258;53.170;-2.240;2022-12-29T00:27:27;2083.60;2075.80;2035.20
77239;PMS7003;66258;53.170;-2.240;2022-12-29T00:29:55;2449.80;2447.60;2417.40
77239;PMS7003;66258;53.170;-2.240;2022-12-29T00:32:23;2966.00;2963.00;2948.75
77239;PMS7003;66258;53.170;-2.240;2022-12-29T00:34:52;2754.20;2743.60;2735.20
77239;PMS7003;66258;53.170;-2.240;2022-12-29T00:37:19;1783.40;1757.20;1735.00
77239;PMS7003;66258;53.170;-2.240;2022-12-29T00:39:47;2457.40;2448.00;2435.00
77239;PMS7003;66258;53.170;-2.240;2022-12-29T00:42:14;2565.75;2564.50;2547.25
77239;PMS7003;66258;53.170;-2.240;2022-12-29T00:44:42;1794.25;1779.75;1765.75
77239;PMS7003;66258;53.170;-2.240;2022-12-29T00:47:10;2315.00;2300.00;2277.80
77239;PMS7003;66258;53.170;-2.240;2022-12-29T00:49:37;2568.75;2556.75;2546.75
77239;PMS7003;66258;53.170;-2.240;2022-12-29T00:52:06;2916.80;2906.40;2896.80
77239;PMS7003;66258;53.170;-2.240;2022-12-29T00:54:35;1156.00;1145.60;1107.60
77239;PMS7003;66258;53.170;-2.240;2022-12-29T00:57:05;1637.00;1616.50;1590.50
77239;PMS7003;66258;53.170;-2.240;2022-12-29T00:59:34;1620.00;1601.75;1571.75
77239;PMS7003;66258;53.170;-2.240;2022-12-29T01:02:02;1854.20;1836.00;1817.00
77239;PMS7003;66258;53.170;-2.240;2022-12-29T01:04:30;2236.80;2220.80;2205.00
77239;PMS7003;66258;53.170;-2.240;2022-12-29T01:06:58;3163.40;3153.40;3145.60
77239;PMS7003;66258;53.170;-2.240;2022-12-29T01:09:27;2223.20;2217.60;2186.60
77239;PMS7003;66258;53.170;-2.240;2022-12-29T01:11:54;2383.60;2375.00;2358.40
77239;PMS7003;66258;53.170;-2.240;2022-12-29T01:14:22;2681.00;2665.00;2653.00
77239;PMS7003;66258;53.170;-2.240;2022-12-29T01:16:49;2236.40;2221.60;2205.20
77239;PMS7003;66258;53.170;-2.240;2022-12-29T01:19:17;2528.80;2524.40;2510.20
77239;PMS7003;66258;53.170;-2.240;2022-12-29T01:21:46;55.00;47.33;35.00
77239;PMS7003;66258;53.170;-2.240;2022-12-29T01:24:14;2162.00;2149.40;2131.20
77239;PMS7003;66258;53.170;-2.240;2022-12-29T01:26:45;526.00;518.80;491.00
77239;PMS7003;66258;53.170;-2.240;2022-12-29T01:29:12;3238.80;3234.60;3226.60
77239;PMS7003;66258;53.170;-2.240;2022-12-29T01:31:40;2382.00;2373.40;2362.80
77239;PMS7003;66258;53.170;-2.240;2022-12-29T01:34:08;2170.40;2161.60;2131.20
77239;PMS7003;66258;53.170;-2.240;2022-12-29T01:36:35;3389.80;3376.20;3362.60
77239;PMS7003;66258;53.170;-2.240;2022-12-29T01:39:03;533.60;525.20;503.00
77239;PMS7003;66258;53.170;-2.240;2022-12-29T01:41:30;1155.00;1135.40;1115.80
77239;PMS7003;66258;53.170;-2.240;2022-12-29T01:43:59;2963.50;2962.50;2947.50
77239;PMS7003;66258;53.170;-2.240;2022-12-29T01:46:28;2488.40;2470.20;2454.00
77239;PMS7003;66258;53.170;-2.240;2022-12-29T01:48:59;3396.00;3392.00;3385.00
77239;PMS7003;66258;53.170;-2.240;2022-12-29T01:51:37;2813.60;2803.00;2790.20
77239;PMS7003;66258;53.170;-2.240;2022-12-29T01:54:09;147.75;142.00;130.50
77239;PMS7003;66258;53.170;-2.240;2022-12-29T01:56:40;685.60;676.80;663.80
77239;PMS7003;66258;53.170;-2.240;2022-12-29T01:59:10;3654.40;3650.40;3644.00
77239;PMS7003;66258;53.170;-2.240;2022-12-29T02:01:43;1570.40;1564.80;1546.00
77239;PMS7003;66258;53.170;-2.240;2022-12-29T02:04:11;2262.00;2239.00;2225.50
77239;PMS7003;66258;53.170;-2.240;2022-12-29T02:06:41;70.60;58.60;48.20
77239;PMS7003;66258;53.170;-2.240;2022-12-29T02:09:12;892.80;883.40;829.40
77239;PMS7003;66258;53.170;-2.240;2022-12-29T02:11:39;1525.60;1520.80;1472.20
77239;PMS7003;66258;53.170;-2.240;2022-12-29T02:14:10;2802.75;2795.25;2755.50
77239;PMS7003;66258;53.170;-2.240;2022-12-29T02:16:45;3961.00;3960.60;3959.20
77239;PMS7003;66258;53.170;-2.240;2022-12-29T02:19:43;963.20;947.60;910.40
77239;PMS7003;66258;53.170;-2.240;2022-12-29T02:22:40;891.40;886.60;848.40
77239;PMS7003;66258;53.170;-2.240;2022-12-29T02:25:27;2082.80;2078.80;2052.20
77239;PMS7003;66258;53.170;-2.240;2022-12-29T02:31:12;2565.40;2560.60;2541.40
77239;PMS7003;66258;53.170;-2.240;2022-12-29T02:33:51;1999.20;1997.80;1972.20
77239;PMS7003;66258;53.170;-2.240;2022-12-29T02:36:27;1604.00;1595.00;1553.75
77239;PMS7003;66258;53.170;-2.240;2022-12-29T02:39:04;1612.40;1611.40;1568.60
77239;PMS7003;66258;53.170;-2.240;2022-12-29T02:41:41;2389.00;2380.25;2362.25
77239;PMS7003;66258;53.170;-2.240;2022-12-29T02:44:17;1462.20;1462.20;1404.60
77239;PMS7003;66258;53.170;-2.240;2022-12-29T02:46:56;2319.60;2318.40;2289.80
77239;PMS7003;66258;53.170;-2.240;2022-12-29T02:49:33;1927.60;1927.60;1892.40
77239;PMS7003;66258;53.170;-2.240;2022-12-29T02:52:05;642.20;640.80;598.00
77239;PMS7003;66258;53.170;-2.240;2022-12-29T02:54:37;656.80;656.80;600.80
77239;PMS7003;66258;53.170;-2.240;2022-12-29T02:57:05;811.80;811.80;758.20
77239;PMS7003;66258;53.170;-2.240;2022-12-29T02:59:38;1669.60;1669.60;1636.80
77239;PMS7003;66258;53.170;-2.240;2022-12-29T03:02:17;1381.75;1381.75;1342.25
77239;PMS7003;66258;53.170;-2.240;2022-12-29T03:07:54;574.60;573.80;510.20
77239;PMS7003;66258;53.170;-2.240;2022-12-29T03:10:34;3587.00;3587.00;3570.75
77239;PMS7003;66258;53.170;-2.240;2022-12-29T03:13:11;2202.25;2202.25;2149.75
77239;PMS7003;66258;53.170;-2.240;2022-12-29T03:15:44;2693.00;2684.25;2662.25
77239;PMS7003;66258;53.170;-2.240;2022-12-29T03:18:22;3109.75;3107.25;3076.75
77239;PMS7003;66258;53.170;-2.240;2022-12-29T03:20:58;3294.00;3294.00;3263.00
77239;PMS7003;66258;53.170;-2.240;2022-12-29T03:23:29;3987.25;3987.25;3985.00
77239;PMS7003;66258;53.170;-2.240;2022-12-29T03:25:59;2995.00;2995.00;2963.75
77239;PMS7003;66258;53.170;-2.240;2022-12-29T03:28:31;3091.75;3087.25;3063.25
77239;PMS7003;66258;53.170;-2.240;2022-12-29T03:31:04;2618.50;2599.25;2572.50
77239;PMS7003;66258;53.170;-2.240;2022-12-29T03:33:36;3698.25;3698.25;3681.00
77239;PMS7003;66258;53.170;-2.240;2022-12-29T03:36:07;2809.00;2797.60;2779.40
77239;PMS7003;66258;53.170;-2.240;2022-12-29T03:38:42;3602.00;3602.00;3573.00
77239;PMS7003;66258;53.170;-2.240;2022-12-29T03:41:14;3297.40;3296.40;3265.40
77239;PMS7003;66258;53.170;-2.240;2022-12-29T03:43:47;3961.00;3960.25;3957.50
77239;PMS7003;66258;53.170;-2.240;2022-12-29T03:46:14;4079.00;4079.00;4079.00
77239;PMS7003;66258;53.170;-2.240;2022-12-29T03:48:43;3686.50;3686.50;3668.75
77239;PMS7003;66258;53.170;-2.240;2022-12-29T03:51:11;3490.00;3486.75;3466.25
77239;PMS7003;66258;53.170;-2.240;2022-12-29T03:53:38;3488.50;3488.50;3468.25
77239;PMS7003;66258;53.170;-2.240;2022-12-29T03:56:06;3776.25;3774.50;3772.75
77239;PMS7003;66258;53.170;-2.240;2022-12-29T03:58:34;3441.20;3435.40;3427.60
77239;PMS7003;66258;53.170;-2.240;2022-12-29T04:01:01;2496.50;2483.00;2459.50
77239;PMS7003;66258;53.170;-2.240;2022-12-29T04:03:29;3213.25;3207.75;3175.00
77239;PMS7003;66258;53.170;-2.240;2022-12-29T04:05:58;2396.00;2383.75;2359.00
77239;PMS7003;66258;53.170;-2.240;2022-12-29T04:08:26;2123.20;2109.40;2065.40
77239;PMS7003;66258;53.170;-2.240;2022-12-29T04:10:53;2834.25;2829.75;2772.25
77239;PMS7003;66258;53.170;-2.240;2022-12-29T04:13:21;2830.20;2821.00;2794.80
77239;PMS7003;66258;53.170;-2.240;2022-12-29T04:15:50;1528.25;1519.75;1448.75
77239;PMS7003;66258;53.170;-2.240;2022-12-29T04:18:18;3381.25;3378.75;3368.50
77239;PMS7003;66258;53.170;-2.240;2022-12-29T04:20:45;3705.00;3705.00;3693.00
77239;PMS7003;66258;53.170;-2.240;2022-12-29T04:23:13;3380.50;3375.00;3369.25
77239;PMS7003;66258;53.170;-2.240;2022-12-29T04:25:40;2691.00;2686.50;2666.25
77239;PMS7003;66258;53.170;-2.240;2022-12-29T04:28:11;2501.25;2487.25;2475.00
77239;PMS7003;66258;53.170;-2.240;2022-12-29T04:30:40;3281.60;3281.60;3266.80
77239;PMS7003;66258;53.170;-2.240;2022-12-29T04:33:07;2079.00;2073.60;2058.40
77239;PMS7003;66258;53.170;-2.240;2022-12-29T04:35:34;1600.50;1600.50;1553.50
77239;PMS7003;66258;53.170;-2.240;2022-12-29T04:38:02;94.40;91.00;43.20
77239;PMS7003;66258;53.170;-2.240;2022-12-29T04:40:31;404.60;403.40;383.20
77239;PMS7003;66258;53.170;-2.240;2022-12-29T04:42:59;88.80;79.40;62.60
77239;PMS7003;66258;53.170;-2.240;2022-12-29T04:45:27;252.80;249.60;237.60
77239;PMS7003;66258;53.170;-2.240;2022-12-29T04:47:54;495.80;494.40;452.60
77239;PMS7003;66258;53.170;-2.240;2022-12-29T04:50:21;251.20;245.80;212.00
77239;PMS7003;66258;53.170;-2.240;2022-12-29T04:52:49;94.00;89.40;43.80
77239;PMS7003;66258;53.170;-2.240;2022-12-29T04:55:16;820.20;817.80;780.20
77239;PMS7003;66258;53.170;-2.240;2022-12-29T04:57:45;903.80;900.60;867.40
77239;PMS7003;66258;53.170;-2.240;2022-12-29T05:00:13;590.40;586.00;538.60
77239;PMS7003;66258;53.170;-2.240;2022-12-29T05:02:41;93.75;86.75;73.00
77239;PMS7003;66258;53.170;-2.240;2022-12-29T05:05:08;591.80;591.60;540.20
77239;PMS7003;66258;53.170;-2.240;2022-12-29T05:07:35;261.20;258.80;214.80
77239;PMS7003;66258;53.170;-2.240;2022-12-29T05:10:03;2144.80;2137.60;2110.80
77239;PMS7003;66258;53.170;-2.240;2022-12-29T05:12:31;404.40;401.00;386.00
77239;PMS7003;66258;53.170;-2.240;2022-12-29T05:15:01;424.60;423.00;400.80
77239;PMS7003;66258;53.170;-2.240;2022-12-29T05:17:29;755.00;754.00;697.80
77239;PMS7003;66258;53.170;-2.240;2022-12-29T05:19:57;599.80;586.80;532.20
77239;PMS7003;66258;53.170;-2.240;2022-12-29T05:22:24;589.80;589.80;542.00
77239;PMS7003;66258;53.170;-2.240;2022-12-29T05:24:52;2166.00;2156.40;2118.60
77239;PMS7003;66258;53.170;-2.240;2022-12-29T05:27:19;2047.80;2041.20;2014.00
77239;PMS7003;66258;53.170;-2.240;2022-12-29T05:29:47;2086.20;2075.20;2028.80
77239;PMS7003;66258;53.170;-2.240;2022-12-29T05:32:16;2145.80;2137.80;2100.20
77239;PMS7003;66258;53.170;-2.240;2022-12-29T05:34:44;587.00;581.80;542.60
77239;PMS7003;66258;53.170;-2.240;2022-12-29T05:37:11;603.80;601.00;541.00
77239;PMS7003;66258;53.170;-2.240;2022-12-29T05:39:39;1996.20;1987.60;1951.20
77239;PMS7003;66258;53.170;-2.240;2022-12-29T05:42:07;2233.60;2218.00;2196.40
77239;PMS7003;66258;53.170;-2.240;2022-12-29T05:44:35;2294.25;2273.00;2228.25
77239;PMS7003;66258;53.170;-2.240;2022-12-29T05:47:02;2683.75;2678.25;2650.50
77239;PMS7003;66258;53.170;-2.240;2022-12-29T05:49:31;2673.60;2665.40;2621.60
77239;PMS7003;66258;53.170;-2.240;2022-12-29T05:51:59;2069.00;2057.25;2009.50
77239;PMS7003;66258;53.170;-2.240;2022-12-29T05:54:26;2554.20;2541.80;2513.20
77239;PMS7003;66258;53.170;-2.240;2022-12-29T05:56:54;1823.00;1821.40;1778.00
77239;PMS7003;66258;53.170;-2.240;2022-12-29T05:59:21;2329.80;2328.60;2282.80
77239;PMS7003;66258;53.170;-2.240;2022-12-29T06:01:49;2761.00;2760.00;2724.00
77239;PMS7003;66258;53.170;-2.240;2022-12-29T06:04:17;2177.40;2175.40;2119.00
77239;PMS7003;66258;53.170;-2.240;2022-12-29T06:06:46;2679.00;2671.75;2639.25
77239;PMS7003;66258;53.170;-2.240;2022-12-29T06:09:13;2470.25;2460.50;2433.25
77239;PMS7003;66258;53.170;-2.240;2022-12-29T06:11:40;1261.60;1253.80;1197.20
77239;PMS7003;66258;53.170;-2.240;2022-12-29T06:14:08;1573.20;1571.00;1528.40
77239;PMS7003;66258;53.170;-2.240;2022-12-29T06:16:35;1649.75;1634.75;1593.50
77239;PMS7003;66258;53.170;-2.240;2022-12-29T06:19:03;1249.20;1236.00;1198.40
77239;PMS7003;66258;53.170;-2.240;2022-12-29T06:21:31;1542.25;1539.00;1492.25
77239;PMS7003;66258;53.170;-2.240;2022-12-29T06:24:00;733.50;721.00;659.00
77239;PMS7003;66258;53.170;-2.240;2022-12-29T06:26:27;1542.00;1522.25;1490.25
77239;PMS7003;66258;53.170;-2.240;2022-12-29T06:28:54;2347.75;2338.75;2304.00
77239;PMS7003;66258;53.170;-2.240;2022-12-29T06:31:22;1465.20;1442.20;1416.00
77239;PMS7003;66258;53.170;-2.240;2022-12-29T06:33:49;2357.00;2348.75;2312.25
77239;PMS7003;66258;53.170;-2.240;2022-12-29T06:36:17;2236.00;2221.50;2195.75
77239;PMS7003;66258;53.170;-2.240;2022-12-29T06:38:44;2337.50;2331.00;2307.25
77239;PMS7003;66258;53.170;-2.240;2022-12-29T06:41:13;506.75;493.00;451.25
77239;PMS7003;66258;53.170;-2.240;2022-12-29T06:43:40;1395.75;1388.75;1369.50
77239;PMS7003;66258;53.170;-2.240;2022-12-29T06:46:08;1487.25;1481.50;1460.75
77239;PMS7003;66258;53.170;-2.240;2022-12-29T06:48:35;1354.60;1342.40;1329.60
77239;PMS7003;66258;53.170;-2.240;2022-12-29T06:51:03;1684.75;1679.25;1670.00
77239;PMS7003;66258;53.170;-2.240;2022-12-29T06:53:30;65.25;45.25;27.00
77239;PMS7003;66258;53.170;-2.240;2022-12-29T06:55:58;852.25;848.75;839.50
77239;PMS7003;66258;53.170;-2.240;2022-12-29T06:58:26;1425.80;1423.00;1414.60
77239;PMS7003;66258;53.170;-2.240;2022-12-29T07:00:56;5.25;5.25;5.25
77239;PMS7003;66258;53.170;-2.240;2022-12-29T07:03:23;411.50;411.50;411.50
77239;PMS7003;66258;53.170;-2.240;2022-12-29T07:05:51;9.00;7.75;5.75
77239;PMS7003;66258;53.170;-2.240;2022-12-29T07:08:18;26.75;24.25;19.50
77239;PMS7003;66258;53.170;-2.240;2022-12-29T07:10:45;4.00;4.00;4.00
77239;PMS7003;66258;53.170;-2.240;2022-12-29T07:13:13;16.75;14.50;11.75
77239;PMS7003;66258;53.170;-2.240;2022-12-29T07:15:42;21.00;21.00;16.75
77239;PMS7003;66258;53.170;-2.240;2022-12-29T07:18:09;1.25;1.25;0.50
77239;PMS7003;66258;53.170;-2.240;2022-12-29T07:20:36;0.00;0.00;0.00
77239;PMS7003;66258;53.170;-2.240;2022-12-29T07:23:04;18.25;18.25;16.00
77239;PMS7003;66258;53.170;-2.240;2022-12-29T07:25:31;22.67;22.00;18.33
77239;PMS7003;66258;53.170;-2.240;2022-12-29T07:27:58;542.50;537.75;529.75
77239;PMS7003;66258;53.170;-2.240;2022-12-29T07:30:25;49.33;40.00;28.00
77239;PMS7003;66258;53.170;-2.240;2022-12-29T07:32:54;437.50;437.50;430.25
77239;PMS7003;66258;53.170;-2.240;2022-12-29T07:35:21;19.75;19.75;14.50
77239;PMS7003;66258;53.170;-2.240;2022-12-29T07:37:48;28.25;28.25;23.00
77239;PMS7003;66258;53.170;-2.240;2022-12-29T07:40:16;35.67;35.67;27.00
77239;PMS7003;66258;53.170;-2.240;2022-12-29T07:42:44;10.00;10.00;9.25
77239;PMS7003;66258;53.170;-2.240;2022-12-29T07:45:11;417.25;417.25;414.50
77239;PMS7003;66258;53.170;-2.240;2022-12-29T07:47:38;18.75;18.75;15.50
77239;PMS7003;66258;53.170;-2.240;2022-12-29T07:50:07;9.75;9.75;8.50
77239;PMS7003;66258;53.170;-2.240;2022-12-29T07:52:34;0.00;0.00;0.00
77239;PMS7003;66258;53.170;-2.240;2022-12-29T07:55:02;6.00;6.00;5.00
77239;PMS7003;66258;53.170;-2.240;2022-12-29T07:57:30;1.75;1.75;1.75
77239;PMS7003;66258;53.170;-2.240;2022-12-29T07:59:57;26.75;23.50;22.25
77239;PMS7003;66258;53.170;-2.240;2022-12-29T08:02:25;0.50;0.50;0.50
77239;PMS7003;66258;53.170;-2.240;2022-12-29T08:04:53;1.75;1.75;1.50
77239;PMS7003;66258;53.170;-2.240;2022-12-29T08:07:22;4.75;4.75;4.50
77239;PMS7003;66258;53.170;-2.240;2022-12-29T08:09:49;7.25;7.25;6.50
77239;PMS7003;66258;53.170;-2.240;2022-12-29T08:12:16;8.00;8.00;6.25
77239;PMS7003;66258;53.170;-2.240;2022-12-29T08:14:44;12.00;12.00;11.25
77239;PMS7003;66258;53.170;-2.240;2022-12-29T08:17:11;21.25;21.25;17.50
77239;PMS7003;66258;53.170;-2.240;2022-12-29T08:19:38;7.25;7.25;6.75
77239;PMS7003;66258;53.170;-2.240;2022-12-29T08:22:06;0.00;0.00;0.00
77239;PMS7003;66258;53.170;-2.240;2022-12-29T08:24:34;17.75;17.75;12.00
77239;PMS7003;66258;53.170;-2.240;2022-12-29T08:27:02;6.00;6.00;4.25
77239;PMS7003;66258;53.170;-2.240;2022-12-29T08:29:41;6.50;6.50;5.75
77239;PMS7003;66258;53.170;-2.240;2022-12-29T08:32:08;15.75;15.75;15.00
77239;PMS7003;66258;53.170;-2.240;2022-12-29T08:34:36;3.00;3.00;3.00
77239;PMS7003;66258;53.170;-2.240;2022-12-29T08:37:04;12.00;12.00;11.00
77239;PMS7003;66258;53.170;-2.240;2022-12-29T08:39:31;2.25;2.25;1.25
77239;PMS7003;66258;53.170;-2.240;2022-12-29T08:42:00;6.75;6.75;6.50
77239;PMS7003;66258;53.170;-2.240;2022-12-29T08:44:27;26.75;24.50;20.25
77239;PMS7003;66258;53.170;-2.240;2022-12-29T08:46:55;3.25;3.25;3.00
77239;PMS7003;66258;53.170;-2.240;2022-12-29T08:49:22;420.25;420.25;420.25
77239;PMS7003;66258;53.170;-2.240;2022-12-29T08:51:50;0.25;0.25;0.25
77239;PMS7003;66258;53.170;-2.240;2022-12-29T08:54:17;24.00;23.00;19.75
77239;PMS7003;66258;53.170;-2.240;2022-12-29T08:56:44;1.00;1.00;1.00
77239;PMS7003;66258;53.170;-2.240;2022-12-29T08:59:13;11.25;11.25;9.50
77239;PMS7003;66258;53.170;-2.240;2022-12-29T09:01:40;102.50;102.50;102.25
77239;PMS7003;66258;53.170;-2.240;2022-12-29T09:04:07;0.25;0.25;0.00
77239;PMS7003;66258;53.170;-2.240;2022-12-29T09:06:41;6.50;6.50;5.50
77239;PMS7003;66258;53.170;-2.240;2022-12-29T09:09:09;0.00;0.00;0.00
77239;PMS7003;66258;53.170;-2.240;2022-12-29T09:11:37;0.75;0.75;0.75
77239;PMS7003;66258;53.170;-2.240;2022-12-29T09:14:04;2.00;2.00;1.00
77239;PMS7003;66258;53.170;-2.240;2022-12-29T09:16:33;3.00;3.00;2.25
77239;PMS7003;66258;53.170;-2.240;2022-12-29T09:19:01;2.00;2.00;1.25
77239;PMS7003;66258;53.170;-2.240;2022-12-29T09:21:29;2.00;2.00;2.00
77239;PMS7003;66258;53.170;-2.240;2022-12-29T09:23:57;1.75;1.75;1.75
77239;PMS7003;66258;53.170;-2.240;2022-12-29T09:26:24;0.75;0.75;0.25
77239;PMS7003;66258;53.170;-2.240;2022-12-29T09:28:52;1.00;1.00;0.00
77239;PMS7003;66258;53.170;-2.240;2022-12-29T09:31:19;0.50;0.50;0.25
77239;PMS7003;66258;53.170;-2.240;2022-12-29T09:33:48;0.00;0.00;0.00
77239;PMS7003;66258;53.170;-2.240;2022-12-29T09:36:15;0.00;0.00;0.00
77239;PMS7003;66258;53.170;-2.240;2022-12-29T09:38:42;0.00;0.00;0.00
77239;PMS7003;66258;53.170;-2.240;2022-12-29T09:41:12;0.00;0.00;0.00
77239;PMS7003;66258;53.170;-2.240;2022-12-29T09:44:02;8.25;7.25;6.75
77239;PMS7003;66258;53.170;-2.240;2022-12-29T09:46:36;0.00;0.00;0.00
77239;PMS7003;66258;53.170;-2.240;2022-12-29T09:49:11;1.00;1.00;0.25
77239;PMS7003;66258;53.170;-2.240;2022-12-29T09:51:46;0.00;0.00;0.00
77239;PMS7003;66258;53.170;-2.240;2022-12-29T09:54:24;0.00;0.00;0.00
77239;PMS7003;66258;53.170;-2.240;2022-12-29T09:57:10;0.00;0.00;0.00
77239;PMS7003;66258;53.170;-2.240;2022-12-29T09:59:44;3.25;3.25;2.75
77239;PMS7003;66258;53.170;-2.240;2022-12-29T10:02:20;0.75;0.75;0.75
77239;PMS7003;66258;53.170;-2.240;2022-12-29T10:04:57;416.25;416.25;414.75
77239;PMS7003;66258;53.170;-2.240;2022-12-29T10:07:27;1.25;1.25;1.25
77239;PMS7003;66258;53.170;-2.240;2022-12-29T10:10:05;3.25;3.25;2.25
77239;PMS7003;66258;53.170;-2.240;2022-12-29T10:12:47;1.00;1.00;1.00
77239;PMS7003;66258;53.170;-2.240;2022-12-29T10:15:28;1.00;1.00;0.00
77239;PMS7003;66258;53.170;-2.240;2022-12-29T10:18:08;1.00;1.00;0.75
77239;PMS7003;66258;53.170;-2.240;2022-12-29T10:20:50;1.75;1.75;1.00
77239;PMS7003;66258;53.170;-2.240;2022-12-29T10:23:28;4.25;4.25;3.75
77239;PMS7003;66258;53.170;-2.240;2022-12-29T10:26:00;1.75;1.75;0.75
77239;PMS7003;66258;53.170;-2.240;2022-12-29T10:28:33;0.50;0.50;0.25
77239;PMS7003;66258;53.170;-2.240;2022-12-29T10:31:03;3.75;3.75;2.75
77239;PMS7003;66258;53.170;-2.240;2022-12-29T10:33:36;0.00;0.00;0.00
77239;PMS7003;66258;53.170;-2.240;2022-12-29T10:36:13;0.00;0.00;0.00
77239;PMS7003;66258;53.170;-2.240;2022-12-29T10:38:46;0.50;0.50;0.50
77239;PMS7003;66258;53.170;-2.240;2022-12-29T10:41:21;0.00;0.00;0.00
77239;PMS7003;66258;53.170;-2.240;2022-12-29T10:43:54;7.50;7.50;7.50
77239;PMS7003;66258;53.170;-2.240;2022-12-29T10:46:24;0.50;0.50;0.25
77239;PMS7003;66258;53.170;-2.240;2022-12-29T10:48:56;0.25;0.25;0.00
77239;PMS7003;66258;53.170;-2.240;2022-12-29T10:51:26;0.00;0.00;0.00
77239;PMS7003;66258;53.170;-2.240;2022-12-29T10:53:57;2.00;2.00;1.25
77239;PMS7003;66258;53.170;-2.240;2022-12-29T10:56:31;0.50;0.50;0.25
77239;PMS7003;66258;53.170;-2.240;2022-12-29T10:59:03;1.25;1.25;1.25
77239;PMS7003;66258;53.170;-2.240;2022-12-29T11:01:38;0.75;0.75;0.25
77239;PMS7003;66258;53.170;-2.240;2022-12-29T11:04:17;4.00;4.00;3.00
77239;PMS7003;66258;53.170;-2.240;2022-12-29T11:06:57;1.50;1.50;0.50
77239;PMS7003;66258;53.170;-2.240;2022-12-29T11:09:27;1.25;1.25;0.50
77239;PMS7003;66258;53.170;-2.240;2022-12-29T11:12:20;1.00;1.00;1.00
77239;PMS7003;66258;53.170;-2.240;2022-12-29T11:15:00;1.00;1.00;0.00
77239;PMS7003;66258;53.170;-2.240;2022-12-29T11:17:42;0.50;0.50;0.25
77239;PMS7003;66258;53.170;-2.240;2022-12-29T11:20:19;2.25;2.25;2.00
77239;PMS7003;66258;53.170;-2.240;2022-12-29T11:22:56;4.00;4.00;3.00
77239;PMS7003;66258;53.170;-2.240;2022-12-29T11:25:24;3.00;3.00;1.75
77239;PMS7003;66258;53.170;-2.240;2022-12-29T11:27:55;1.75;1.75;1.75
77239;PMS7003;66258;53.170;-2.240;2022-12-29T11:30:24;8.50;8.50;6.50
77239;PMS7003;66258;53.170;-2.240;2022-12-29T11:32:54;1.25;1.25;0.75
77239;PMS7003;66258;53.170;-2.240;2022-12-29T11:35:32;2.00;2.00;1.50
77239;PMS7003;66258;53.170;-2.240;2022-12-29T11:38:04;1.00;1.00;1.00
77239;PMS7003;66258;53.170;-2.240;2022-12-29T11:40:32;0.25;0.25;0.25
77239;PMS7003;66258;53.170;-2.240;2022-12-29T11:43:05;2.00;2.00;1.75
77239;PMS7003;66258;53.170;-2.240;2022-12-29T11:45:38;1.50;1.50;1.50
77239;PMS7003;66258;53.170;-2.240;2022-12-29T11:48:14;3.00;3.00;1.00
77239;PMS7003;66258;53.170;-2.240;2022-12-29T11:50:48;5.25;5.25;4.50
77239;PMS7003;66258;53.170;-2.240;2022-12-29T11:53:21;13.00;13.00;13.00
77239;PMS7003;66258;53.170;-2.240;2022-12-29T11:55:52;3.00;3.00;2.00
77239;PMS7003;66258;53.170;-2.240;2022-12-29T11:58:28;1.50;1.50;1.00
77239;PMS7003;66258;53.170;-2.240;2022-12-29T12:00:55;1.00;1.00;1.00
77239;PMS7003;66258;53.170;-2.240;2022-12-29T12:03:24;2.00;2.00;1.00
77239;PMS7003;66258;53.170;-2.240;2022-12-29T12:05:56;2.00;2.00;1.00
77239;PMS7003;66258;53.170;-2.240;2022-12-29T12:08:31;1.00;1.00;0.00
77239;PMS7003;66258;53.170;-2.240;2022-12-29T12:11:06;0.75;0.75;0.00
77239;PMS7003;66258;53.170;-2.240;2022-12-29T12:13:39;0.75;0.75;0.00
77239;PMS7003;66258;53.170;-2.240;2022-12-29T12:16:15;3.50;3.00;3.00
77239;PMS7003;66258;53.170;-2.240;2022-12-29T12:18:46;4.50;4.50;2.75
77239;PMS7003;66258;53.170;-2.240;2022-12-29T12:21:18;1.00;1.00;1.00
77239;PMS7003;66258;53.170;-2.240;2022-12-29T12:24:07;0.25;0.25;0.00
77239;PMS7003;66258;53.170;-2.240;2022-12-29T12:26:50;1.25;1.25;0.25
77239;PMS7003;66258;53.170;-2.240;2022-12-29T12:29:26;1.00;1.00;1.00
77239;PMS7003;66258;53.170;-2.240;2022-12-29T12:32:01;0.00;0.00;0.00
77239;PMS7003;66258;53.170;-2.240;2022-12-29T12:34:37;2.00;2.00;0.00
77239;PMS7003;66258;53.170;-2.240;2022-12-29T12:37:16;1.00;1.00;0.33
77239;PMS7003;66258;53.170;-2.240;2022-12-29T12:40:01;0.67;0.67;0.00
77239;PMS7003;66258;53.170;-2.240;2022-12-29T12:43:00;4.75;4.75;4.00
77239;PMS7003;66258;53.170;-2.240;2022-12-29T12:45:45;0.00;0.00;0.00
77239;PMS7003;66258;53.170;-2.240;2022-12-29T12:48:28;8.50;8.50;8.00
77239;PMS7003;66258;53.170;-2.240;2022-12-29T12:51:11;12.75;12.75;12.00
77239;PMS7003;66258;53.170;-2.240;2022-12-29T12:53:53;10.50;10.50;8.50
77239;PMS7003;66258;53.170;-2.240;2022-12-29T12:56:40;2.75;2.75;2.50
77239;PMS7003;66258;53.170;-2.240;2022-12-29T12:59:17;1.25;1.25;0.75
77239;PMS7003;66258;53.170;-2.240;2022-12-29T13:01:59;7.50;7.50;7.00
77239;PMS7003;66258;53.170;-2.240;2022-12-29T13:07:34;0.75;0.75;0.75
77239;PMS7003;66258;53.170;-2.240;2022-12-29T13:10:17;3.00;3.00;2.00
77239;PMS7003;66258;53.170;-2.240;2022-12-29T13:12:55;1.75;1.75;1.25
77239;PMS7003;66258;53.170;-2.240;2022-12-29T13:15:40;68.33;56.67;46.00
77239;PMS7003;66258;53.170;-2.240;2022-12-29T13:18:17;5.00;5.00;5.00
77239;PMS7003;66258;53.170;-2.240;2022-12-29T13:20:54;1.00;1.00;1.00
77239;PMS7003;66258;53.170;-2.240;2022-12-29T13:23:29;0.50;0.50;0.00
77239;PMS7003;66258;53.170;-2.240;2022-12-29T13:26:05;1.25;1.25;1.00
77239;PMS7003;66258;53.170;-2.240;2022-12-29T13:28:49;1.50;1.50;1.25
77239;PMS7003;66258;53.170;-2.240;2022-12-29T13:31:24;1.00;1.00;0.25
77239;PMS7003;66258;53.170;-2.240;2022-12-29T13:34:00;4.50;4.50;2.75
77239;PMS7003;66258;53.170;-2.240;2022-12-29T13:36:40;1.50;1.50;1.00
77239;PMS7003;66258;53.170;-2.240;2022-12-29T13:39:11;1.00;1.00;1.00
77239;PMS7003;66258;53.170;-2.240;2022-12-29T13:41:47;4.50;4.50;4.25
77239;PMS7003;66258;53.170;-2.240;2022-12-29T13:44:20;27.50;27.50;23.50
77239;PMS7003;66258;53.170;-2.240;2022-12-29T13:46:52;6.25;6.25;6.25